sensor_id;sensor_type;location;lat;lon;timestamp;temperature;humidity
1594;DHT22;790;47.000;16.084;2023-03-05T00:00:48;2.70;99.90
1594;DHT22;790;47.000;16.084;2023-03-05T00:03:15;2.60;99.90
1594;DHT22;790;47.000;16.084;2023-03-05T00:05:44;2.50;99.90
1594;DHT22;790;47.000;16.084;2023-03-05T00:08:11;2.50;99.90
1594;DHT22;790;47.000;16.084;2023-03-05T00:10:38;2.40;99.90
1594;DHT22;790;47.000;16.084;2023-03-05T00:13:05;2.30;99.90
1594;DHT22;790;47.000;16.084;2023-03-05T00:15:32;2.30;99.90
1594;DHT22;790;47.000;16.084;2023-03-05T00:18:00;2.30;99.90
1594;DHT22;790;47.000;16.084;2023-03-05T00:20:27;2.30;99.90
1594;DHT22;790;47.000;16.084;2023-03-05T00:22:55;2.30;99.90
1594;DHT22;790;47.000;16.084;2023-03-05T00:25:23;2.30;99.90
1594;DHT22;790;47.000;16.084;2023-03-05T00:27:50;2.30;99.90
1594;DHT22;790;47.000;16.084;2023-03-05T00:30:17;2.30;99.90
1594;DHT22;790;47.000;16.084;2023-03-05T00:32:44;2.20;99.90
1594;DHT22;790;47.000;16.084;2023-03-05T00:35:12;2.20;99.90
1594;DHT22;790;47.000;16.084;2023-03-05T00:37:39;2.10;99.90
1594;DHT22;790;47.000;16.084;2023-03-05T00:40:10;2.10;99.90
1594;DHT22;790;47.000;16.084;2023-03-05T00:42:37;2.10;99.90
1594;DHT22;790;47.000;16.084;2023-03-05T00:45:06;2.00;99.90
1594;DHT22;790;47.000;16.084;2023-03-05T00:47:35;2.00;99.90
1594;DHT22;790;47.000;16.084;2023-03-05T00:50:03;2.00;99.90
1594;DHT22;790;47.000;16.084;2023-03-05T00:52:30;2.00;99.90
1594;DHT22;790;47.000;16.084;2023-03-05T00:54:58;1.90;99.90
1594;DHT22;790;47.000;16.084;2023-03-05T00:57:26;1.90;99.90
1594;DHT22;790;47.000;16.084;2023-03-05T00:59:53;1.80;99.90
1594;DHT22;790;47.000;16.084;2023-03-05T01:02:20;1.80;99.90
1594;DHT22;790;47.000;16.084;2023-03-05T01:04:48;1.70;99.90
1594;DHT22;790;47.000;16.084;2023-03-05T01:07:15;1.70;99.90
1594;DHT22;790;47.000;16.084;2023-03-05T01:09:42;1.70;99.90
1594;DHT22;790;47.000;16.084;2023-03-05T01:12:09;1.60;99.90
1594;DHT22;790;47.000;16.084;2023-03-05T01:14:38;1.70;99.90
1594;DHT22;790;47.000;16.084;2023-03-05T01:17:06;1.70;99.90
1594;DHT22;790;47.000;16.084;2023-03-05T01:19:33;1.70;99.90
1594;DHT22;790;47.000;16.084;2023-03-05T01:22:00;1.60;99.90
1594;DHT22;790;47.000;16.084;2023-03-05T01:24:29;1.60;99.90
1594;DHT22;790;47.000;16.084;2023-03-05T01:26:57;1.60;99.90
1594;DHT22;790;47.000;16.084;2023-03-05T01:29:24;1.50;99.90
1594;DHT22;790;47.000;16.084;2023-03-05T01:31:53;1.50;99.90
1594;DHT22;790;47.000;16.084;2023-03-05T01:34:20;1.50;99.90
1594;DHT22;790;47.000;16.084;2023-03-05T01:36:47;1.50;99.90
1594;DHT22;790;47.000;16.084;2023-03-05T01:39:16;1.50;99.90
1594;DHT22;790;47.000;16.084;2023-03-05T01:41:43;1.40;99.90
1594;DHT22;790;47.000;16.084;2023-03-05T01:44:20;1.30;99.90
1594;DHT22;790;47.000;16.084;2023-03-05T01:46:48;1.30;99.90
1594;DHT22;790;47.000;16.084;2023-03-05T01:49:34;1.40;99.90
1594;DHT22;790;47.000;16.084;2023-03-05T01:52:06;1.40;99.90
1594;DHT22;790;47.000;16.084;2023-03-05T01:54:39;1.30;99.90
1594;DHT22;790;47.000;16.084;2023-03-05T01:57:13;1.30;99.90
1594;DHT22;790;47.000;16.084;2023-03-05T01:59:43;1.30;99.90
1594;DHT22;790;47.000;16.084;2023-03-05T02:02:12;1.40;99.90
1594;DHT22;790;47.000;16.084;2023-03-05T02:04:48;1.30;99.90
1594;DHT22;790;47.000;16.084;2023-03-05T02:07:17;1.30;99.90
1594;DHT22;790;47.000;16.084;2023-03-05T02:09:44;1.30;99.90
1594;DHT22;790;47.000;16.084;2023-03-05T02:12:12;1.30;99.90
1594;DHT22;790;47.000;16.084;2023-03-05T02:14:42;1.20;99.90
1594;DHT22;790;47.000;16.084;2023-03-05T02:17:11;1.20;99.90
1594;DHT22;790;47.000;16.084;2023-03-05T02:19:51;1.20;99.90
1594;DHT22;790;47.000;16.084;2023-03-05T02:22:22;1.10;99.90
1594;DHT22;790;47.000;16.084;2023-03-05T02:24:50;1.10;99.90
1594;DHT22;790;47.000;16.084;2023-03-05T02:27:20;1.10;99.90
1594;DHT22;790;47.000;16.084;2023-03-05T02:29:48;1.10;99.90
1594;DHT22;790;47.000;16.084;2023-03-05T02:32:16;1.10;99.90
1594;DHT22;790;47.000;16.084;2023-03-05T02:34:43;1.10;99.90
1594;DHT22;790;47.000;16.084;2023-03-05T02:37:11;1.10;99.90
1594;DHT22;790;47.000;16.084;2023-03-05T02:39:41;1.00;99.90
1594;DHT22;790;47.000;16.084;2023-03-05T02:42:08;0.90;99.90
1594;DHT22;790;47.000;16.084;2023-03-05T02:44:36;0.90;99.90
1594;DHT22;790;47.000;16.084;2023-03-05T02:47:03;0.90;99.90
1594;DHT22;790;47.000;16.084;2023-03-05T02:49:31;0.90;99.90
1594;DHT22;790;47.000;16.084;2023-03-05T02:51:58;0.90;99.90
1594;DHT22;790;47.000;16.084;2023-03-05T02:54:25;0.90;99.90
1594;DHT22;790;47.000;16.084;2023-03-05T02:56:54;0.90;99.90
1594;DHT22;790;47.000;16.084;2023-03-05T02:59:21;0.80;99.90
1594;DHT22;790;47.000;16.084;2023-03-05T03:01:48;0.80;99.90
1594;DHT22;790;47.000;16.084;2023-03-05T03:04:15;0.70;99.90
1594;DHT22;790;47.000;16.084;2023-03-05T03:06:43;0.70;99.90
1594;DHT22;790;47.000;16.084;2023-03-05T03:09:11;0.70;99.90
1594;DHT22;790;47.000;16.084;2023-03-05T03:11:38;0.80;99.90
1594;DHT22;790;47.000;16.084;2023-03-05T03:14:07;0.80;99.90
1594;DHT22;790;47.000;16.084;2023-03-05T03:16:34;0.80;99.90
1594;DHT22;790;47.000;16.084;2023-03-05T03:19:01;0.70;99.90
1594;DHT22;790;47.000;16.084;2023-03-05T03:21:28;0.70;99.90
1594;DHT22;790;47.000;16.084;2023-03-05T03:23:57;0.70;99.90
1594;DHT22;790;47.000;16.084;2023-03-05T03:26:24;0.60;99.90
1594;DHT22;790;47.000;16.084;2023-03-05T03:28:51;0.50;99.90
1594;DHT22;790;47.000;16.084;2023-03-05T03:31:20;0.50;99.90
1594;DHT22;790;47.000;16.084;2023-03-05T03:33:47;0.40;99.90
1594;DHT22;790;47.000;16.084;2023-03-05T03:36:15;0.40;99.90
1594;DHT22;790;47.000;16.084;2023-03-05T03:38:42;0.40;99.90
1594;DHT22;790;47.000;16.084;2023-03-05T03:41:10;0.50;99.90
1594;DHT22;790;47.000;16.084;2023-03-05T03:43:37;0.60;99.90
1594;DHT22;790;47.000;16.084;2023-03-05T03:46:04;0.50;99.90
1594;DHT22;790;47.000;16.084;2023-03-05T03:48:33;0.50;99.90
1594;DHT22;790;47.000;16.084;2023-03-05T03:51:04;0.50;99.90
1594;DHT22;790;47.000;16.084;2023-03-05T03:53:32;0.40;99.90
1594;DHT22;790;47.000;16.084;2023-03-05T03:55:59;0.40;99.90
1594;DHT22;790;47.000;16.084;2023-03-05T03:58:26;0.40;99.90
1594;DHT22;790;47.000;16.084;2023-03-05T04:00:53;0.40;99.90
1594;DHT22;790;47.000;16.084;2023-03-05T04:03:20;0.40;99.90
1594;DHT22;790;47.000;16.084;2023-03-05T04:05:49;0.30;99.90
1594;DHT22;790;47.000;16.084;2023-03-05T04:08:16;0.30;99.90
1594;DHT22;790;47.000;16.084;2023-03-05T04:10:44;0.30;99.90
1594;DHT22;790;47.000;16.084;2023-03-05T04:13:11;0.30;99.90
1594;DHT22;790;47.000;16.084;2023-03-05T04:15:38;0.30;99.90
1594;DHT22;790;47.000;16.084;2023-03-05T04:18:07;0.30;99.90
1594;DHT22;790;47.000;16.084;2023-03-05T04:20:36;0.20;99.90
1594;DHT22;790;47.000;16.084;2023-03-05T04:23:04;0.20;99.90
1594;DHT22;790;47.000;16.084;2023-03-05T04:25:31;0.10;99.90
1594;DHT22;790;47.000;16.084;2023-03-05T04:27:59;0.10;99.90
1594;DHT22;790;47.000;16.084;2023-03-05T04:30:26;0.00;99.90
1594;DHT22;790;47.000;16.084;2023-03-05T04:32:53;0.00;99.90
1594;DHT22;790;47.000;16.084;2023-03-05T04:35:20;-0.10;99.90
1594;DHT22;790;47.000;16.084;2023-03-05T04:37:48;0.00;99.90
1594;DHT22;790;47.000;16.084;2023-03-05T04:40:18;0.20;99.90
1594;DHT22;790;47.000;16.084;2023-03-05T04:42:45;0.20;99.90
1594;DHT22;790;47.000;16.084;2023-03-05T04:45:12;0.20;99.90
1594;DHT22;790;47.000;16.084;2023-03-05T04:47:41;0.20;99.90
1594;DHT22;790;47.000;16.084;2023-03-05T04:50:10;0.30;99.90
1594;DHT22;790;47.000;16.084;2023-03-05T04:52:39;0.20;99.90
1594;DHT22;790;47.000;16.084;2023-03-05T04:55:08;0.20;99.90
1594;DHT22;790;47.000;16.084;2023-03-05T04:57:37;0.20;99.90
1594;DHT22;790;47.000;16.084;2023-03-05T05:00:06;0.00;99.90
1594;DHT22;790;47.000;16.084;2023-03-05T05:02:39;-0.10;99.90
1594;DHT22;790;47.000;16.084;2023-03-05T05:05:08;-0.10;99.90
1594;DHT22;790;47.000;16.084;2023-03-05T05:07:37;-0.10;99.90
1594;DHT22;790;47.000;16.084;2023-03-05T05:10:06;-0.10;99.90
1594;DHT22;790;47.000;16.084;2023-03-05T05:12:33;-0.10;99.90
1594;DHT22;790;47.000;16.084;2023-03-05T05:15:08;-0.20;99.90
1594;DHT22;790;47.000;16.084;2023-03-05T05:17:36;-0.20;99.90
1594;DHT22;790;47.000;16.084;2023-03-05T05:20:04;-0.30;99.90
1594;DHT22;790;47.000;16.084;2023-03-05T05:22:33;-0.40;99.90
1594;DHT22;790;47.000;16.084;2023-03-05T05:25:01;-0.40;99.90
1594;DHT22;790;47.000;16.084;2023-03-05T05:27:29;-0.30;99.90
1594;DHT22;790;47.000;16.084;2023-03-05T05:29:56;-0.30;99.90
1594;DHT22;790;47.000;16.084;2023-03-05T05:32:25;-0.30;99.90
1594;DHT22;790;47.000;16.084;2023-03-05T05:34:54;-0.30;99.90
1594;DHT22;790;47.000;16.084;2023-03-05T05:37:23;-0.30;99.90
1594;DHT22;790;47.000;16.084;2023-03-05T05:39:50;-0.30;99.90
1594;DHT22;790;47.000;16.084;2023-03-05T05:42:20;-0.30;99.90
1594;DHT22;790;47.000;16.084;2023-03-05T05:44:48;-0.30;99.90
1594;DHT22;790;47.000;16.084;2023-03-05T05:47:16;-0.30;99.90
1594;DHT22;790;47.000;16.084;2023-03-05T05:49:45;-0.20;99.90
1594;DHT22;790;47.000;16.084;2023-03-05T05:52:13;-0.20;99.90
1594;DHT22;790;47.000;16.084;2023-03-05T05:54:41;-0.30;99.90
1594;DHT22;790;47.000;16.084;2023-03-05T05:57:08;-0.30;99.90
1594;DHT22;790;47.000;16.084;2023-03-05T05:59:35;-0.20;99.90
1594;DHT22;790;47.000;16.084;2023-03-05T06:02:03;-0.20;99.90
1594;DHT22;790;47.000;16.084;2023-03-05T06:04:30;-0.20;99.90
1594;DHT22;790;47.000;16.084;2023-03-05T06:07:00;-0.20;99.90
1594;DHT22;790;47.000;16.084;2023-03-05T06:09:28;-0.20;99.90
1594;DHT22;790;47.000;16.084;2023-03-05T06:11:55;-0.20;99.90
1594;DHT22;790;47.000;16.084;2023-03-05T06:14:22;-0.10;99.90
1594;DHT22;790;47.000;16.084;2023-03-05T06:16:50;0.00;99.90
1594;DHT22;790;47.000;16.084;2023-03-05T06:19:17;0.00;99.90
1594;DHT22;790;47.000;16.084;2023-03-05T06:21:44;0.10;99.90
1594;DHT22;790;47.000;16.084;2023-03-05T06:24:13;0.10;99.90
1594;DHT22;790;47.000;16.084;2023-03-05T06:26:40;0.10;99.90
1594;DHT22;790;47.000;16.084;2023-03-05T06:29:07;0.10;99.90
1594;DHT22;790;47.000;16.084;2023-03-05T06:31:35;0.00;99.90
1594;DHT22;790;47.000;16.084;2023-03-05T06:34:03;0.10;99.90
1594;DHT22;790;47.000;16.084;2023-03-05T06:36:30;0.10;99.90
1594;DHT22;790;47.000;16.084;2023-03-05T06:38:57;0.20;99.90
1594;DHT22;790;47.000;16.084;2023-03-05T06:41:28;0.40;99.90
1594;DHT22;790;47.000;16.084;2023-03-05T06:43:56;0.60;99.90
1594;DHT22;790;47.000;16.084;2023-03-05T06:46:27;0.60;99.90
1594;DHT22;790;47.000;16.084;2023-03-05T06:48:56;0.60;99.90
1594;DHT22;790;47.000;16.084;2023-03-05T06:51:25;0.60;99.90
1594;DHT22;790;47.000;16.084;2023-03-05T06:53:54;0.50;99.90
1594;DHT22;790;47.000;16.084;2023-03-05T06:56:22;0.60;99.90
1594;DHT22;790;47.000;16.084;2023-03-05T06:58:54;0.60;99.90
1594;DHT22;790;47.000;16.084;2023-03-05T07:01:22;0.60;99.90
1594;DHT22;790;47.000;16.084;2023-03-05T07:03:52;0.70;99.90
1594;DHT22;790;47.000;16.084;2023-03-05T07:06:35;0.70;99.90
1594;DHT22;790;47.000;16.084;2023-03-05T07:09:04;0.80;99.90
1594;DHT22;790;47.000;16.084;2023-03-05T07:11:32;0.90;99.90
1594;DHT22;790;47.000;16.084;2023-03-05T07:14:01;0.90;99.90
1594;DHT22;790;47.000;16.084;2023-03-05T07:16:30;0.90;99.90
1594;DHT22;790;47.000;16.084;2023-03-05T07:18:59;1.00;99.90
1594;DHT22;790;47.000;16.084;2023-03-05T07:21:29;1.00;99.90
1594;DHT22;790;47.000;16.084;2023-03-05T07:23:58;1.20;99.90
1594;DHT22;790;47.000;16.084;2023-03-05T07:26:25;1.20;99.90
1594;DHT22;790;47.000;16.084;2023-03-05T07:28:53;1.30;99.90
1594;DHT22;790;47.000;16.084;2023-03-05T07:31:25;1.30;99.90
1594;DHT22;790;47.000;16.084;2023-03-05T07:33:58;1.40;99.90
1594;DHT22;790;47.000;16.084;2023-03-05T07:36:26;1.40;99.90
1594;DHT22;790;47.000;16.084;2023-03-05T07:38:53;1.50;99.90
1594;DHT22;790;47.000;16.084;2023-03-05T07:41:21;1.60;99.90
1594;DHT22;790;47.000;16.084;2023-03-05T07:43:50;1.70;99.90
1594;DHT22;790;47.000;16.084;2023-03-05T07:46:21;1.70;99.90
1594;DHT22;790;47.000;16.084;2023-03-05T07:48:51;1.70;99.90
1594;DHT22;790;47.000;16.084;2023-03-05T07:51:20;1.80;99.90
1594;DHT22;790;47.000;16.084;2023-03-05T07:53:50;1.80;99.90
1594;DHT22;790;47.000;16.084;2023-03-05T07:56:21;1.90;99.90
1594;DHT22;790;47.000;16.084;2023-03-05T07:58:48;2.10;99.90
1594;DHT22;790;47.000;16.084;2023-03-05T08:01:15;2.30;99.90
1594;DHT22;790;47.000;16.084;2023-03-05T08:03:42;2.50;99.90
1594;DHT22;790;47.000;16.084;2023-03-05T08:06:16;2.60;99.90
1594;DHT22;790;47.000;16.084;2023-03-05T08:08:43;2.80;99.90
1594;DHT22;790;47.000;16.084;2023-03-05T08:11:12;2.80;99.90
1594;DHT22;790;47.000;16.084;2023-03-05T08:13:39;2.90;99.90
1594;DHT22;790;47.000;16.084;2023-03-05T08:16:10;3.00;99.90
1594;DHT22;790;47.000;16.084;2023-03-05T08:18:38;3.10;99.90
1594;DHT22;790;47.000;16.084;2023-03-05T08:21:17;3.30;99.90
1594;DHT22;790;47.000;16.084;2023-03-05T08:23:46;3.50;99.90
1594;DHT22;790;47.000;16.084;2023-03-05T08:26:15;3.50;99.90
1594;DHT22;790;47.000;16.084;2023-03-05T08:28:44;3.70;99.90
1594;DHT22;790;47.000;16.084;2023-03-05T08:31:13;3.80;99.90
1594;DHT22;790;47.000;16.084;2023-03-05T08:33:41;4.00;99.90
1594;DHT22;790;47.000;16.084;2023-03-05T08:36:09;4.20;99.90
1594;DHT22;790;47.000;16.084;2023-03-05T08:38:38;4.30;99.90
1594;DHT22;790;47.000;16.084;2023-03-05T08:41:06;4.40;99.90
1594;DHT22;790;47.000;16.084;2023-03-05T08:43:34;4.50;99.90
1594;DHT22;790;47.000;16.084;2023-03-05T08:46:02;4.60;99.90
1594;DHT22;790;47.000;16.084;2023-03-05T08:48:30;4.70;99.90
1594;DHT22;790;47.000;16.084;2023-03-05T08:51:04;4.90;99.90
1594;DHT22;790;47.000;16.084;2023-03-05T08:53:31;5.10;99.90
1594;DHT22;790;47.000;16.084;2023-03-05T08:56:00;5.10;99.90
1594;DHT22;790;47.000;16.084;2023-03-05T08:58:27;5.00;99.90
1594;DHT22;790;47.000;16.084;2023-03-05T09:00:55;5.20;99.90
1594;DHT22;790;47.000;16.084;2023-03-05T09:03:23;5.30;99.90
1594;DHT22;790;47.000;16.084;2023-03-05T09:06:12;5.40;99.90
1594;DHT22;790;47.000;16.084;2023-03-05T09:08:44;5.70;99.90
1594;DHT22;790;47.000;16.084;2023-03-05T09:11:40;5.90;99.90
1594;DHT22;790;47.000;16.084;2023-03-05T09:14:12;6.00;99.90
1594;DHT22;790;47.000;16.084;2023-03-05T09:16:49;6.10;99.90
1594;DHT22;790;47.000;16.084;2023-03-05T09:19:26;6.20;99.90
1594;DHT22;790;47.000;16.084;2023-03-05T09:21:54;6.40;99.90
1594;DHT22;790;47.000;16.084;2023-03-05T09:24:23;6.50;99.90
1594;DHT22;790;47.000;16.084;2023-03-05T09:26:57;6.70;99.90
1594;DHT22;790;47.000;16.084;2023-03-05T09:29:25;6.80;99.90
1594;DHT22;790;47.000;16.084;2023-03-05T09:31:54;6.90;99.90
1594;DHT22;790;47.000;16.084;2023-03-05T09:34:22;7.00;99.90
1594;DHT22;790;47.000;16.084;2023-03-05T09:36:49;7.10;99.90
1594;DHT22;790;47.000;16.084;2023-03-05T09:39:17;7.20;99.90
1594;DHT22;790;47.000;16.084;2023-03-05T09:45:15;7.40;99.90
1594;DHT22;790;47.000;16.084;2023-03-05T09:47:57;7.50;99.90
1594;DHT22;790;47.000;16.084;2023-03-05T09:50:58;7.50;99.90
1594;DHT22;790;47.000;16.084;2023-03-05T09:53:45;7.60;99.90
1594;DHT22;790;47.000;16.084;2023-03-05T09:56:17;7.80;99.90
1594;DHT22;790;47.000;16.084;2023-03-05T09:59:12;8.00;99.90
1594;DHT22;790;47.000;16.084;2023-03-05T10:01:49;8.00;99.90
1594;DHT22;790;47.000;16.084;2023-03-05T10:04:41;7.90;99.90
1594;DHT22;790;47.000;16.084;2023-03-05T10:07:19;7.90;99.90
1594;DHT22;790;47.000;16.084;2023-03-05T10:09:57;8.00;99.90
1594;DHT22;790;47.000;16.084;2023-03-05T10:12:39;8.00;99.90
1594;DHT22;790;47.000;16.084;2023-03-05T10:15:28;8.00;99.90
1594;DHT22;790;47.000;16.084;2023-03-05T10:18:12;7.90;99.90
1594;DHT22;790;47.000;16.084;2023-03-05T10:20:57;7.90;99.90
1594;DHT22;790;47.000;16.084;2023-03-05T10:23:51;8.00;99.90
1594;DHT22;790;47.000;16.084;2023-03-05T10:26:44;8.20;99.90
1594;DHT22;790;47.000;16.084;2023-03-05T10:29:56;8.40;99.90
1594;DHT22;790;47.000;16.084;2023-03-05T10:32:52;8.50;99.90
1594;DHT22;790;47.000;16.084;2023-03-05T10:36:11;8.70;99.90
1594;DHT22;790;47.000;16.084;2023-03-05T10:39:29;8.80;99.90
1594;DHT22;790;47.000;16.084;2023-03-05T10:42:17;9.00;99.90
1594;DHT22;790;47.000;16.084;2023-03-05T10:44:52;9.10;99.90
1594;DHT22;790;47.000;16.084;2023-03-05T10:47:36;9.10;99.90
1594;DHT22;790;47.000;16.084;2023-03-05T10:50:16;9.20;99.90
1594;DHT22;790;47.000;16.084;2023-03-05T10:53:15;9.20;99.90
1594;DHT22;790;47.000;16.084;2023-03-05T10:55:47;9.20;99.90
1594;DHT22;790;47.000;16.084;2023-03-05T10:59:08;9.40;99.90
1594;DHT22;790;47.000;16.084;2023-03-05T11:02:01;9.50;99.90
1594;DHT22;790;47.000;16.084;2023-03-05T11:04:39;9.60;99.90
1594;DHT22;790;47.000;16.084;2023-03-05T11:07:55;9.70;99.90
1594;DHT22;790;47.000;16.084;2023-03-05T11:10:47;9.80;99.90
1594;DHT22;790;47.000;16.084;2023-03-05T11:13:34;9.90;99.90
1594;DHT22;790;47.000;16.084;2023-03-05T11:16:15;10.00;99.90
1594;DHT22;790;47.000;16.084;2023-03-05T11:19:16;10.00;99.90
1594;DHT22;790;47.000;16.084;2023-03-05T11:22:05;10.10;99.90
1594;DHT22;790;47.000;16.084;2023-03-05T11:24:41;10.10;99.90
1594;DHT22;790;47.000;16.084;2023-03-05T11:27:35;10.10;99.90
1594;DHT22;790;47.000;16.084;2023-03-05T11:30:17;10.20;99.90
1594;DHT22;790;47.000;16.084;2023-03-05T11:33:12;10.20;99.90
1594;DHT22;790;47.000;16.084;2023-03-05T11:35:52;10.30;99.90
1594;DHT22;790;47.000;16.084;2023-03-05T11:38:45;10.30;99.90
1594;DHT22;790;47.000;16.084;2023-03-05T11:41:17;10.40;99.90
1594;DHT22;790;47.000;16.084;2023-03-05T11:43:53;10.50;99.90
1594;DHT22;790;47.000;16.084;2023-03-05T11:46:28;10.50;99.90
1594;DHT22;790;47.000;16.084;2023-03-05T11:49:05;10.60;99.90
1594;DHT22;790;47.000;16.084;2023-03-05T11:51:57;10.70;99.90
1594;DHT22;790;47.000;16.084;2023-03-05T11:54:38;10.70;99.90
1594;DHT22;790;47.000;16.084;2023-03-05T11:57:24;10.70;99.90
1594;DHT22;790;47.000;16.084;2023-03-05T11:59:59;10.80;99.90
1594;DHT22;790;47.000;16.084;2023-03-05T12:02:36;10.80;99.90
1594;DHT22;790;47.000;16.084;2023-03-05T12:05:23;10.80;99.90
1594;DHT22;790;47.000;16.084;2023-03-05T12:07:58;10.80;99.90
1594;DHT22;790;47.000;16.084;2023-03-05T12:10:35;10.80;99.90
1594;DHT22;790;47.000;16.084;2023-03-05T12:13:13;10.80;99.90
1594;DHT22;790;47.000;16.084;2023-03-05T12:16:01;10.90;99.90
1594;DHT22;790;47.000;16.084;2023-03-05T12:21:29;11.10;99.90
1594;DHT22;790;47.000;16.084;2023-03-05T12:27:16;11.20;99.90
1594;DHT22;790;47.000;16.084;2023-03-05T12:29:59;11.10;99.90
1594;DHT22;790;47.000;16.084;2023-03-05T12:32:59;11.00;99.90
1594;DHT22;790;47.000;16.084;2023-03-05T12:35:33;10.80;99.90
1594;DHT22;790;47.000;16.084;2023-03-05T12:38:31;10.70;99.90
1594;DHT22;790;47.000;16.084;2023-03-05T12:44:21;10.60;99.90
1594;DHT22;790;47.000;16.084;2023-03-05T12:47:24;10.50;99.90
1594;DHT22;790;47.000;16.084;2023-03-05T12:50:00;10.50;99.90
1594;DHT22;790;47.000;16.084;2023-03-05T12:52:43;10.50;99.90
1594;DHT22;790;47.000;16.084;2023-03-05T12:55:22;10.60;99.90
1594;DHT22;790;47.000;16.084;2023-03-05T12:57:55;10.70;99.90
1594;DHT22;790;47.000;16.084;2023-03-05T13:00:29;10.80;99.90
1594;DHT22;790;47.000;16.084;2023-03-05T13:03:16;10.80;99.90
1594;DHT22;790;47.000;16.084;2023-03-05T13:05:52;10.70;99.90
1594;DHT22;790;47.000;16.084;2023-03-05T13:08:28;10.80;99.90
1594;DHT22;790;47.000;16.084;2023-03-05T13:10:59;10.80;99.90
1594;DHT22;790;47.000;16.084;2023-03-05T13:13:34;10.80;99.90
1594;DHT22;790;47.000;16.084;2023-03-05T13:16:13;10.70;99.90
1594;DHT22;790;47.000;16.084;2023-03-05T13:18:46;10.50;99.90
1594;DHT22;790;47.000;16.084;2023-03-05T13:21:24;10.40;99.90
1594;DHT22;790;47.000;16.084;2023-03-05T13:24:02;10.30;99.90
1594;DHT22;790;47.000;16.084;2023-03-05T13:26:54;10.30;99.90
1594;DHT22;790;47.000;16.084;2023-03-05T13:29:26;10.30;99.90
1594;DHT22;790;47.000;16.084;2023-03-05T13:32:22;10.30;99.90
1594;DHT22;790;47.000;16.084;2023-03-05T13:34:52;10.20;99.90
1594;DHT22;790;47.000;16.084;2023-03-05T13:37:30;10.40;99.90
1594;DHT22;790;47.000;16.084;2023-03-05T13:40:14;10.50;99.90
1594;DHT22;790;47.000;16.084;2023-03-05T13:42:45;10.50;99.90
1594;DHT22;790;47.000;16.084;2023-03-05T13:45:31;10.60;99.90
1594;DHT22;790;47.000;16.084;2023-03-05T13:48:05;10.60;99.90
1594;DHT22;790;47.000;16.084;2023-03-05T13:50:53;10.60;99.90
1594;DHT22;790;47.000;16.084;2023-03-05T13:53:37;10.60;99.90
1594;DHT22;790;47.000;16.084;2023-03-05T13:56:12;10.60;99.90
1594;DHT22;790;47.000;16.084;2023-03-05T13:58:46;10.50;99.90
1594;DHT22;790;47.000;16.084;2023-03-05T14:01:29;10.50;99.90
1594;DHT22;790;47.000;16.084;2023-03-05T14:04:15;10.50;99.90
1594;DHT22;790;47.000;16.084;2023-03-05T14:06:47;10.40;99.90
1594;DHT22;790;47.000;16.084;2023-03-05T14:09:27;10.40;99.90
1594;DHT22;790;47.000;16.084;2023-03-05T14:12:02;10.40;99.90
1594;DHT22;790;47.000;16.084;2023-03-05T14:14:39;10.30;99.90
1594;DHT22;790;47.000;16.084;2023-03-05T14:17:44;10.30;99.90
1594;DHT22;790;47.000;16.084;2023-03-05T14:20:24;10.30;99.90
1594;DHT22;790;47.000;16.084;2023-03-05T14:22:57;10.30;99.90
1594;DHT22;790;47.000;16.084;2023-03-05T14:25:32;10.20;99.90
1594;DHT22;790;47.000;16.084;2023-03-05T14:28:06;10.10;99.90
1594;DHT22;790;47.000;16.084;2023-03-05T14:30:53;10.20;99.90
1594;DHT22;790;47.000;16.084;2023-03-05T14:33:36;10.00;99.90
1594;DHT22;790;47.000;16.084;2023-03-05T14:36:10;10.00;99.90
1594;DHT22;790;47.000;16.084;2023-03-05T14:38:39;10.00;99.90
1594;DHT22;790;47.000;16.084;2023-03-05T14:41:49;10.00;99.90
1594;DHT22;790;47.000;16.084;2023-03-05T14:44:21;10.00;99.90
1594;DHT22;790;47.000;16.084;2023-03-05T14:49:55;10.00;99.90
1594;DHT22;790;47.000;16.084;2023-03-05T14:52:39;10.00;99.90
1594;DHT22;790;47.000;16.084;2023-03-05T14:55:21;10.00;99.90
1594;DHT22;790;47.000;16.084;2023-03-05T14:58:01;10.00;99.90
1594;DHT22;790;47.000;16.084;2023-03-05T15:00:40;9.90;99.90
1594;DHT22;790;47.000;16.084;2023-03-05T15:03:23;9.90;99.90
1594;DHT22;790;47.000;16.084;2023-03-05T15:05:55;9.90;99.90
1594;DHT22;790;47.000;16.084;2023-03-05T15:08:36;9.90;99.90
1594;DHT22;790;47.000;16.084;2023-03-05T15:11:11;9.90;99.90
1594;DHT22;790;47.000;16.084;2023-03-05T15:13:40;10.00;99.90
1594;DHT22;790;47.000;16.084;2023-03-05T15:16:27;10.00;99.90
1594;DHT22;790;47.000;16.084;2023-03-05T15:19:12;10.10;99.90
1594;DHT22;790;47.000;16.084;2023-03-05T15:22:00;10.10;99.90
1594;DHT22;790;47.000;16.084;2023-03-05T15:24:42;10.10;99.90
1594;DHT22;790;47.000;16.084;2023-03-05T15:27:16;10.00;99.90
1594;DHT22;790;47.000;16.084;2023-03-05T15:29:57;10.00;99.90
1594;DHT22;790;47.000;16.084;2023-03-05T15:32:32;10.00;99.90
1594;DHT22;790;47.000;16.084;2023-03-05T15:35:15;10.00;99.90
1594;DHT22;790;47.000;16.084;2023-03-05T15:37:46;10.00;99.90
1594;DHT22;790;47.000;16.084;2023-03-05T15:40:27;9.90;99.90
1594;DHT22;790;47.000;16.084;2023-03-05T15:42:59;9.90;99.90
1594;DHT22;790;47.000;16.084;2023-03-05T15:45:55;9.80;99.90
1594;DHT22;790;47.000;16.084;2023-03-05T15:48:28;9.70;99.90
1594;DHT22;790;47.000;16.084;2023-03-05T15:51:00;9.60;99.90
1594;DHT22;790;47.000;16.084;2023-03-05T15:53:44;9.60;99.90
1594;DHT22;790;47.000;16.084;2023-03-05T15:56:18;9.50;99.90
1594;DHT22;790;47.000;16.084;2023-03-05T15:58:51;9.40;99.90
1594;DHT22;790;47.000;16.084;2023-03-05T16:01:41;9.40;99.90
1594;DHT22;790;47.000;16.084;2023-03-05T16:04:24;9.30;99.90
1594;DHT22;790;47.000;16.084;2023-03-05T16:06:54;9.30;99.90
1594;DHT22;790;47.000;16.084;2023-03-05T16:09:35;9.20;99.90
1594;DHT22;790;47.000;16.084;2023-03-05T16:12:19;9.20;99.90
1594;DHT22;790;47.000;16.084;2023-03-05T16:14:49;9.10;99.90
1594;DHT22;790;47.000;16.084;2023-03-05T16:17:29;9.00;99.90
1594;DHT22;790;47.000;16.084;2023-03-05T16:20:13;8.90;99.90
1594;DHT22;790;47.000;16.084;2023-03-05T16:23:15;8.90;99.90
1594;DHT22;790;47.000;16.084;2023-03-05T16:25:47;8.90;99.90
1594;DHT22;790;47.000;16.084;2023-03-05T16:28:16;8.80;99.90
1594;DHT22;790;47.000;16.084;2023-03-05T16:30:57;8.70;99.90
1594;DHT22;790;47.000;16.084;2023-03-05T16:33:28;8.70;99.90
1594;DHT22;790;47.000;16.084;2023-03-05T16:36:24;8.60;99.90
1594;DHT22;790;47.000;16.084;2023-03-05T16:39:05;8.60;99.90
1594;DHT22;790;47.000;16.084;2023-03-05T16:41:38;8.60;99.90
1594;DHT22;790;47.000;16.084;2023-03-05T16:44:09;8.50;99.90
1594;DHT22;790;47.000;16.084;2023-03-05T16:46:41;8.40;99.90
1594;DHT22;790;47.000;16.084;2023-03-05T16:49:15;8.30;99.90
1594;DHT22;790;47.000;16.084;2023-03-05T16:51:59;8.20;99.90
1594;DHT22;790;47.000;16.084;2023-03-05T16:54:44;8.10;99.90
1594;DHT22;790;47.000;16.084;2023-03-05T16:57:21;7.90;99.90
1594;DHT22;790;47.000;16.084;2023-03-05T16:59:56;7.70;99.90
1594;DHT22;790;47.000;16.084;2023-03-05T17:02:39;7.50;99.90
1594;DHT22;790;47.000;16.084;2023-03-05T17:05:14;7.40;99.90
1594;DHT22;790;47.000;16.084;2023-03-05T17:07:46;7.30;99.90
1594;DHT22;790;47.000;16.084;2023-03-05T17:10:28;7.20;99.90
1594;DHT22;790;47.000;16.084;2023-03-05T17:13:06;7.00;99.90